sensor_id;sensor_type;location;lat;lon;timestamp;pressure;altitude;pressure_sealevel;temperature;humidity
83512;BME280;73446;0.000;0.000;2024-03-07T00:00:22;99273.59;;;21.12;35.90
83512;BME280;73446;0.000;0.000;2024-03-07T00:03:06;99273.59;;;21.12;35.57
83512;BME280;73446;0.000;0.000;2024-03-07T00:05:50;99272.00;;;21.11;35.53
83512;BME280;73446;0.000;0.000;2024-03-07T00:08:34;99273.88;;;21.10;35.78
83512;BME280;73446;0.000;0.000;2024-03-07T00:11:18;99276.81;;;21.09;36.02
83512;BME280;73446;0.000;0.000;2024-03-07T00:14:02;99281.09;;;21.10;35.84
83512;BME280;73446;0.000;0.000;2024-03-07T00:16:47;99274.97;;;21.09;35.83
83512;BME280;73446;0.000;0.000;2024-03-07T00:19:31;99272.56;;;21.08;35.93
83512;BME280;73446;0.000;0.000;2024-03-07T00:22:15;99272.56;;;21.08;35.89
83512;BME280;73446;0.000;0.000;2024-03-07T00:24:59;99273.63;;;21.07;35.96
83512;BME280;73446;0.000;0.000;2024-03-07T00:27:43;99276.28;;;21.07;35.87
83512;BME280;73446;0.000;0.000;2024-03-07T00:30:29;99276.28;;;21.07;35.93
83512;BME280;73446;0.000;0.000;2024-03-07T00:33:13;99280.84;;;21.06;35.77
83512;BME280;73446;0.000;0.000;2024-03-07T00:35:57;99272.00;;;21.06;35.75
83512;BME280;73446;0.000;0.000;2024-03-07T00:38:41;99277.38;;;21.06;36.04
83512;BME280;73446;0.000;0.000;2024-03-07T00:41:25;99274.16;;;21.04;35.86
83512;BME280;73446;0.000;0.000;2024-03-07T00:44:10;99273.88;;;21.05;35.89
83512;BME280;73446;0.000;0.000;2024-03-07T00:46:54;99276.81;;;21.04;35.97
83512;BME280;73446;0.000;0.000;2024-03-07T00:49:38;99271.47;;;21.04;35.75
83512;BME280;73446;0.000;0.000;2024-03-07T00:52:22;99269.59;;;21.04;35.95
83512;BME280;73446;0.000;0.000;2024-03-07T00:55:07;99268.00;;;21.03;35.80
83512;BME280;73446;0.000;0.000;2024-03-07T00:57:54;99266.41;;;21.02;36.25
83512;BME280;73446;0.000;0.000;2024-03-07T01:00:38;99268.28;;;21.02;35.79
83512;BME280;73446;0.000;0.000;2024-03-07T01:03:22;99263.72;;;21.02;36.02
83512;BME280;73446;0.000;0.000;2024-03-07T01:06:07;99264.53;;;21.03;35.92
83512;BME280;73446;0.000;0.000;2024-03-07T01:08:53;99264.53;;;21.03;35.87
83512;BME280;73446;0.000;0.000;2024-03-07T01:11:37;99254.09;;;21.01;35.99
83512;BME280;73446;0.000;0.000;2024-03-07T01:14:22;99262.13;;;21.01;36.06
83512;BME280;73446;0.000;0.000;2024-03-07T01:17:06;99259.97;;;20.98;35.92
83512;BME280;73446;0.000;0.000;2024-03-07T01:19:51;99254.63;;;20.98;35.98
83512;BME280;73446;0.000;0.000;2024-03-07T01:22:36;99250.09;;;20.99;36.00
83512;BME280;73446;0.000;0.000;2024-03-07T01:25:19;99255.19;;;21.00;35.76
83512;BME280;73446;0.000;0.000;2024-03-07T01:28:05;99259.44;;;21.01;35.99
83512;BME280;73446;0.000;0.000;2024-03-07T01:30:50;99252.78;;;20.99;35.90
83512;BME280;73446;0.000;0.000;2024-03-07T01:33:35;99252.78;;;20.99;35.87
83512;BME280;73446;0.000;0.000;2024-03-07T01:36:19;99251.97;;;20.98;36.01
83512;BME280;73446;0.000;0.000;2024-03-07T01:39:03;99250.38;;;20.97;36.03
83512;BME280;73446;0.000;0.000;2024-03-07T01:41:47;99243.41;;;20.96;35.94
83512;BME280;73446;0.000;0.000;2024-03-07T01:44:34;99249.56;;;20.96;36.17
83512;BME280;73446;0.000;0.000;2024-03-07T01:47:18;99238.06;;;20.96;36.10
83512;BME280;73446;0.000;0.000;2024-03-07T01:50:02;99237.00;;;20.97;35.95
83512;BME280;73446;0.000;0.000;2024-03-07T01:52:48;99235.41;;;20.96;35.79
83512;BME280;73446;0.000;0.000;2024-03-07T01:55:34;99231.66;;;20.97;36.02
83512;BME280;73446;0.000;0.000;2024-03-07T01:58:18;99228.44;;;20.95;35.60
83512;BME280;73446;0.000;0.000;2024-03-07T02:01:03;99231.13;;;20.95;35.79
83512;BME280;73446;0.000;0.000;2024-03-07T02:03:47;99225.78;;;20.95;35.78
83512;BME280;73446;0.000;0.000;2024-03-07T02:06:32;99219.38;;;20.96;35.70
83512;BME280;73446;0.000;0.000;2024-03-07T02:09:17;99224.97;;;20.94;35.75
83512;BME280;73446;0.000;0.000;2024-03-07T02:12:01;99223.41;;;20.93;35.93
83512;BME280;73446;0.000;0.000;2024-03-07T02:14:45;99224.22;;;20.94;35.71
83512;BME280;73446;0.000;0.000;2024-03-07T02:17:29;99223.41;;;20.93;35.73
83512;BME280;73446;0.000;0.000;2024-03-07T02:20:14;99221.53;;;20.94;35.89
83512;BME280;73446;0.000;0.000;2024-03-07T02:22:59;99224.22;;;20.94;35.73
83512;BME280;73446;0.000;0.000;2024-03-07T02:25:43;99217.25;;;20.93;35.54
83512;BME280;73446;0.000;0.000;2024-03-07T02:28:28;99207.38;;;20.93;35.64
83512;BME280;73446;0.000;0.000;2024-03-07T02:31:13;99211.13;;;20.92;35.68
83512;BME280;73446;0.000;0.000;2024-03-07T02:33:57;99212.44;;;20.90;35.88
83512;BME280;73446;0.000;0.000;2024-03-07T02:36:41;99208.97;;;20.89;35.92
83512;BME280;73446;0.000;0.000;2024-03-07T02:39:25;99202.56;;;20.90;35.71
83512;BME280;73446;0.000;0.000;2024-03-07T02:42:09;99203.38;;;20.91;35.95
83512;BME280;73446;0.000;0.000;2024-03-07T02:44:53;99200.69;;;20.91;35.55
83512;BME280;73446;0.000;0.000;2024-03-07T02:47:38;99202.31;;;20.92;35.68
83512;BME280;73446;0.000;0.000;2024-03-07T02:50:22;99205.25;;;20.90;35.98
83512;BME280;73446;0.000;0.000;2024-03-07T02:53:06;99199.09;;;20.90;35.98
83512;BME280;73446;0.000;0.000;2024-03-07T02:55:51;99197.50;;;20.89;35.79
83512;BME280;73446;0.000;0.000;2024-03-07T02:58:35;99192.94;;;20.89;35.63
83512;BME280;73446;0.000;0.000;2024-03-07T03:01:19;99194.81;;;20.89;35.78
83512;BME280;73446;0.000;0.000;2024-03-07T03:04:03;99187.88;;;20.88;35.87
83512;BME280;73446;0.000;0.000;2024-03-07T03:06:47;99186.28;;;20.87;35.83
83512;BME280;73446;0.000;0.000;2024-03-07T03:09:31;99193.22;;;20.88;35.71
83512;BME280;73446;0.000;0.000;2024-03-07T03:12:17;99191.34;;;20.88;35.73
83512;BME280;73446;0.000;0.000;2024-03-07T03:15:01;99191.34;;;20.88;35.70
83512;BME280;73446;0.000;0.000;2024-03-07T03:17:46;99188.69;;;20.88;35.71
83512;BME280;73446;0.000;0.000;2024-03-07T03:20:30;99182.53;;;20.88;35.74
83512;BME280;73446;0.000;0.000;2024-03-07T03:23:18;99187.06;;;20.87;35.57
83512;BME280;73446;0.000;0.000;2024-03-07T03:26:02;99189.75;;;20.87;35.50
83512;BME280;73446;0.000;0.000;2024-03-07T03:28:47;99181.72;;;20.87;35.52
83512;BME280;73446;0.000;0.000;2024-03-07T03:31:31;99190.53;;;20.88;35.52
83512;BME280;73446;0.000;0.000;2024-03-07T03:34:15;99191.63;;;20.87;35.59
83512;BME280;73446;0.000;0.000;2024-03-07T03:36:59;99179.31;;;20.86;35.42
83512;BME280;73446;0.000;0.000;2024-03-07T03:39:43;99170.25;;;20.87;35.54
83512;BME280;73446;0.000;0.000;2024-03-07T03:42:27;99167.03;;;20.85;35.86
83512;BME280;73446;0.000;0.000;2024-03-07T03:45:11;99165.97;;;20.86;35.41
83512;BME280;73446;0.000;0.000;2024-03-07T03:48:02;99159.56;;;20.82;35.49
83512;BME280;73446;0.000;0.000;2024-03-07T03:50:46;99160.34;;;20.82;35.42
83512;BME280;73446;0.000;0.000;2024-03-07T03:53:30;99156.88;;;20.82;35.82
83512;BME280;73446;0.000;0.000;2024-03-07T03:56:14;99161.16;;;20.83;35.52
83512;BME280;73446;0.000;0.000;2024-03-07T03:58:59;99156.63;;;20.83;35.80
83512;BME280;73446;0.000;0.000;2024-03-07T04:01:43;99155.56;;;20.84;35.61
83512;BME280;73446;0.000;0.000;2024-03-07T04:04:29;99160.09;;;20.84;35.50
83512;BME280;73446;0.000;0.000;2024-03-07T04:07:13;99161.97;;;20.83;35.53
83512;BME280;73446;0.000;0.000;2024-03-07T04:09:57;99165.44;;;20.84;35.43
83512;BME280;73446;0.000;0.000;2024-03-07T04:12:45;99164.91;;;20.82;35.42
83512;BME280;73446;0.000;0.000;2024-03-07T04:15:29;99166.50;;;20.83;35.40
83512;BME280;73446;0.000;0.000;2024-03-07T04:18:15;99163.03;;;20.82;35.37
83512;BME280;73446;0.000;0.000;2024-03-07T04:20:59;99158.50;;;20.83;35.41
83512;BME280;73446;0.000;0.000;2024-03-07T04:23:43;99162.22;;;20.82;35.20
83512;BME280;73446;0.000;0.000;2024-03-07T04:26:29;99153.16;;;20.83;35.46
83512;BME280;73446;0.000;0.000;2024-03-07T04:29:13;99162.22;;;20.82;35.28
83512;BME280;73446;0.000;0.000;2024-03-07T04:31:57;99153.41;;;20.81;35.28
83512;BME280;73446;0.000;0.000;2024-03-07T04:34:41;99155.28;;;20.81;35.10
83512;BME280;73446;0.000;0.000;2024-03-07T04:37:26;99151.53;;;20.82;35.41
83512;BME280;73446;0.000;0.000;2024-03-07T04:40:13;99148.34;;;20.80;35.36
83512;BME280;73446;0.000;0.000;2024-03-07T04:43:00;99157.16;;;20.80;35.25
83512;BME280;73446;0.000;0.000;2024-03-07T04:45:44;99151.00;;;20.80;35.16
83512;BME280;73446;0.000;0.000;2024-03-07T04:48:29;99152.59;;;20.81;35.21
83512;BME280;73446;0.000;0.000;2024-03-07T04:51:13;99151.28;;;20.78;35.42
83512;BME280;73446;0.000;0.000;2024-03-07T04:53:57;99150.50;;;20.78;35.09
83512;BME280;73446;0.000;0.000;2024-03-07T04:56:41;99159.06;;;20.75;35.34
83512;BME280;73446;0.000;0.000;2024-03-07T04:59:25;99157.72;;;20.77;35.44
83512;BME280;73446;0.000;0.000;2024-03-07T05:02:10;99154.25;;;20.77;35.46
83512;BME280;73446;0.000;0.000;2024-03-07T05:04:54;99160.38;;;20.77;35.44
83512;BME280;73446;0.000;0.000;2024-03-07T05:07:38;99159.59;;;20.77;35.39
83512;BME280;73446;0.000;0.000;2024-03-07T05:10:22;99161.19;;;20.78;35.37
83512;BME280;73446;0.000;0.000;2024-03-07T05:13:06;99159.59;;;20.77;35.40
83512;BME280;73446;0.000;0.000;2024-03-07T05:15:51;99153.44;;;20.76;35.38
83512;BME280;73446;0.000;0.000;2024-03-07T05:18:35;99163.31;;;20.76;35.11
83512;BME280;73446;0.000;0.000;2024-03-07T05:21:19;99157.97;;;20.76;35.29
83512;BME280;73446;0.000;0.000;2024-03-07T05:24:22;99159.59;;;20.77;35.22
83512;BME280;73446;0.000;0.000;2024-03-07T05:27:07;99161.72;;;20.75;35.17
83512;BME280;73446;0.000;0.000;2024-03-07T05:29:51;99156.38;;;20.75;35.29
83512;BME280;73446;0.000;0.000;2024-03-07T05:32:35;99151.03;;;20.75;35.11
83512;BME280;73446;0.000;0.000;2024-03-07T05:35:18;99157.19;;;20.75;35.15
83512;BME280;73446;0.000;0.000;2024-03-07T05:38:05;99154.50;;;20.75;35.13
83512;BME280;73446;0.000;0.000;2024-03-07T05:40:49;99156.38;;;20.75;35.14
83512;BME280;73446;0.000;0.000;2024-03-07T05:43:33;99157.44;;;20.74;35.13
83512;BME280;73446;0.000;0.000;2024-03-07T05:46:16;99151.03;;;20.75;35.12
83512;BME280;73446;0.000;0.000;2024-03-07T05:49:01;99156.66;;;20.73;34.96
83512;BME280;73446;0.000;0.000;2024-03-07T05:51:45;99155.56;;;20.74;35.07
83512;BME280;73446;0.000;0.000;2024-03-07T05:54:33;99154.25;;;20.72;34.90
83512;BME280;73446;0.000;0.000;2024-03-07T05:57:16;99162.78;;;20.69;34.88
83512;BME280;73446;0.000;0.000;2024-03-07T06:00:01;99148.38;;;20.70;35.04
83512;BME280;73446;0.000;0.000;2024-03-07T06:02:44;99155.56;;;20.74;35.23
83512;BME280;73446;0.000;0.000;2024-03-07T06:05:28;99153.72;;;20.75;35.30
83512;BME280;73446;0.000;0.000;2024-03-07T06:08:12;99152.09;;;20.74;35.38
83512;BME280;73446;0.000;0.000;2024-03-07T06:10:57;99152.09;;;20.74;35.64
83512;BME280;73446;0.000;0.000;2024-03-07T06:13:41;99153.97;;;20.73;35.42
83512;BME280;73446;0.000;0.000;2024-03-07T06:16:25;99150.50;;;20.73;36.19
83512;BME280;73446;0.000;0.000;2024-03-07T06:19:10;99161.44;;;20.71;36.16
83512;BME280;73446;0.000;0.000;2024-03-07T06:21:55;99151.56;;;20.72;36.18
83512;BME280;73446;0.000;0.000;2024-03-07T06:24:39;99153.16;;;20.73;36.06
83512;BME280;73446;0.000;0.000;2024-03-07T06:27:24;99154.78;;;20.74;36.09
83512;BME280;73446;0.000;0.000;2024-03-07T06:30:20;99156.91;;;20.77;36.21
83512;BME280;73446;0.000;0.000;2024-03-07T06:33:05;99155.03;;;20.77;35.72
83512;BME280;73446;0.000;0.000;2024-03-07T06:35:49;99153.44;;;20.76;35.50
83512;BME280;73446;0.000;0.000;2024-03-07T06:38:33;99155.03;;;20.77;35.44
83512;BME280;73446;0.000;0.000;2024-03-07T06:41:17;99147.84;;;20.78;35.43
83512;BME280;73446;0.000;0.000;2024-03-07T06:44:02;99145.16;;;20.78;35.30
83512;BME280;73446;0.000;0.000;2024-03-07T06:46:46;99147.84;;;20.78;35.29
83512;BME280;73446;0.000;0.000;2024-03-07T06:49:30;99149.41;;;20.79;35.40
83512;BME280;73446;0.000;0.000;2024-03-07T06:52:15;99149.41;;;20.79;35.48
83512;BME280;73446;0.000;0.000;2024-03-07T06:55:00;99152.38;;;20.77;35.14
83512;BME280;73446;0.000;0.000;2024-03-07T06:57:44;99159.28;;;20.78;35.29
83512;BME280;73446;0.000;0.000;2024-03-07T07:00:29;99160.38;;;20.77;35.28
83512;BME280;73446;0.000;0.000;2024-03-07T07:03:14;99163.06;;;20.77;35.19
83512;BME280;73446;0.000;0.000;2024-03-07T07:05:58;99171.06;;;20.77;35.06
83512;BME280;73446;0.000;0.000;2024-03-07T07:08:43;99166.53;;;20.78;35.32
83512;BME280;73446;0.000;0.000;2024-03-07T07:11:28;99161.97;;;20.78;35.26
83512;BME280;73446;0.000;0.000;2024-03-07T07:14:12;99155.03;;;20.77;35.27
83512;BME280;73446;0.000;0.000;2024-03-07T07:16:56;99154.75;;;20.79;35.17
83512;BME280;73446;0.000;0.000;2024-03-07T07:19:42;99156.63;;;20.78;35.06
83512;BME280;73446;0.000;0.000;2024-03-07T07:22:26;99153.19;;;20.78;35.13
83512;BME280;73446;0.000;0.000;2024-03-07T07:25:10;99161.97;;;20.78;34.92
83512;BME280;73446;0.000;0.000;2024-03-07T07:27:58;99158.50;;;20.78;35.27
83512;BME280;73446;0.000;0.000;2024-03-07T07:30:42;99163.56;;;20.79;34.88
83512;BME280;73446;0.000;0.000;2024-03-07T07:33:26;99152.88;;;20.79;34.91
83512;BME280;73446;0.000;0.000;2024-03-07T07:36:10;99143.25;;;20.78;35.15
83512;BME280;73446;0.000;0.000;2024-03-07T07:38:54;99153.19;;;20.78;34.88
83512;BME280;73446;0.000;0.000;2024-03-07T07:41:38;99165.16;;;20.80;35.09
83512;BME280;73446;0.000;0.000;2024-03-07T07:44:22;99157.41;;;20.84;34.98
83512;BME280;73446;0.000;0.000;2024-03-07T07:47:07;99157.94;;;20.86;35.00
83512;BME280;73446;0.000;0.000;2024-03-07T07:49:51;99151.00;;;20.85;34.31
83512;BME280;73446;0.000;0.000;2024-03-07T07:52:35;99154.75;;;20.84;34.40
83512;BME280;73446;0.000;0.000;2024-03-07T07:55:23;99150.47;;;20.83;34.79
83512;BME280;73446;0.000;0.000;2024-03-07T07:58:07;99146.19;;;20.82;34.84
83512;BME280;73446;0.000;0.000;2024-03-07T08:00:51;99143.53;;;20.82;35.41
83512;BME280;73446;0.000;0.000;2024-03-07T08:03:38;99141.13;;;20.85;34.72
83512;BME280;73446;0.000;0.000;2024-03-07T08:06:24;99140.59;;;20.88;34.61
83512;BME280;73446;0.000;0.000;2024-03-07T08:09:08;99136.59;;;20.91;34.72
83512;BME280;73446;0.000;0.000;2024-03-07T08:11:53;99129.91;;;20.93;34.60
83512;BME280;73446;0.000;0.000;2024-03-07T08:14:37;99132.53;;;20.99;34.36
83512;BME280;73446;0.000;0.000;2024-03-07T08:17:21;99140.81;;;21.02;34.07
83512;BME280;73446;0.000;0.000;2024-03-07T08:20:06;99129.31;;;21.07;34.54
83512;BME280;73446;0.000;0.000;2024-03-07T08:22:55;99123.97;;;21.07;34.01
83512;BME280;73446;0.000;0.000;2024-03-07T08:25:40;99120.75;;;21.10;33.71
83512;BME280;73446;0.000;0.000;2024-03-07T08:28:24;99124.75;;;21.12;33.60
83512;BME280;73446;0.000;0.000;2024-03-07T08:31:09;99121.00;;;21.13;33.59
83512;BME280;73446;0.000;0.000;2024-03-07T08:33:53;99124.72;;;21.17;33.85
83512;BME280;73446;0.000;0.000;2024-03-07T08:36:37;99119.94;;;21.19;33.57
83512;BME280;73446;0.000;0.000;2024-03-07T08:39:23;99114.34;;;21.21;33.13
83512;BME280;73446;0.000;0.000;2024-03-07T08:42:07;99115.13;;;21.26;36.99
83512;BME280;73446;0.000;0.000;2024-03-07T08:44:51;99111.06;;;21.29;35.58
83512;BME280;73446;0.000;0.000;2024-03-07T08:47:37;99109.22;;;21.29;33.90
83512;BME280;73446;0.000;0.000;2024-03-07T08:50:22;99108.41;;;21.29;33.31
83512;BME280;73446;0.000;0.000;2024-03-07T08:53:07;99108.13;;;21.30;33.38
83512;BME280;73446;0.000;0.000;2024-03-07T08:55:51;99099.03;;;21.32;33.21
83512;BME280;73446;0.000;0.000;2024-03-07T08:58:35;99104.91;;;21.34;33.21
83512;BME280;73446;0.000;0.000;2024-03-07T09:01:19;99101.44;;;21.38;32.81
83512;BME280;73446;0.000;0.000;2024-03-07T09:04:04;99102.50;;;21.37;32.90
83512;BME280;73446;0.000;0.000;2024-03-07T09:06:48;99101.16;;;21.40;33.27
83512;BME280;73446;0.000;0.000;2024-03-07T09:09:33;99099.00;;;21.42;33.59
83512;BME280;73446;0.000;0.000;2024-03-07T09:12:17;99090.69;;;21.43;33.57
83512;BME280;73446;0.000;0.000;2024-03-07T09:15:04;99081.31;;;21.46;33.72
83512;BME280;73446;0.000;0.000;2024-03-07T09:17:49;99086.66;;;21.46;33.48
83512;BME280;73446;0.000;0.000;2024-03-07T09:20:32;99079.19;;;21.48;33.74
83512;BME280;73446;0.000;0.000;2024-03-07T09:23:16;99081.56;;;21.49;33.95
83512;BME280;73446;0.000;0.000;2024-03-07T09:26:01;99073.28;;;21.51;33.93
83512;BME280;73446;0.000;0.000;2024-03-07T09:28:46;99075.97;;;21.51;33.93
83512;BME280;73446;0.000;0.000;2024-03-07T09:31:30;99074.09;;;21.51;33.97
83512;BME280;73446;0.000;0.000;2024-03-07T09:34:17;99066.34;;;21.50;34.15
83512;BME280;73446;0.000;0.000;2024-03-07T09:37:02;99073.28;;;21.51;33.78
83512;BME280;73446;0.000;0.000;2024-03-07T09:39:46;99067.94;;;21.51;34.34
83512;BME280;73446;0.000;0.000;2024-03-07T09:42:30;99075.16;;;21.50;34.10
83512;BME280;73446;0.000;0.000;2024-03-07T09:45:18;99067.66;;;21.52;34.28
83512;BME280;73446;0.000;0.000;2024-03-07T09:48:02;99074.09;;;21.51;33.79
83512;BME280;73446;0.000;0.000;2024-03-07T09:50:48;99078.34;;;21.52;33.98
83512;BME280;73446;0.000;0.000;2024-03-07T09:53:36;99076.75;;;21.51;34.02
83512;BME280;73446;0.000;0.000;2024-03-07T09:56:21;99066.34;;;21.50;33.97
83512;BME280;73446;0.000;0.000;2024-03-07T09:59:11;99067.69;;;21.47;33.98
83512;BME280;73446;0.000;0.000;2024-03-07T10:01:57;99068.47;;;21.48;34.05
83512;BME280;73446;0.000;0.000;2024-03-07T10:04:43;99070.09;;;21.44;33.98
83512;BME280;73446;0.000;0.000;2024-03-07T10:07:29;99074.16;;;21.41;33.87
83512;BME280;73446;0.000;0.000;2024-03-07T10:10:14;99074.94;;;21.42;33.98
83512;BME280;73446;0.000;0.000;2024-03-07T10:12:58;99073.63;;;21.39;34.01
83512;BME280;73446;0.000;0.000;2024-03-07T10:15:43;99076.28;;;21.39;33.66
83512;BME280;73446;0.000;0.000;2024-03-07T10:18:27;99080.03;;;21.38;33.65
83512;BME280;73446;0.000;0.000;2024-03-07T10:21:14;99076.84;;;21.36;33.79
83512;BME280;73446;0.000;0.000;2024-03-07T10:24:07;99079.00;;;21.34;33.63
83512;BME280;73446;0.000;0.000;2024-03-07T10:26:52;99073.13;;;21.32;33.70
83512;BME280;73446;0.000;0.000;2024-03-07T10:29:36;99068.84;;;21.31;33.89
83512;BME280;73446;0.000;0.000;2024-03-07T10:32:23;99071.78;;;21.29;33.89
83512;BME280;73446;0.000;0.000;2024-03-07T10:35:11;99076.31;;;21.29;33.52
83512;BME280;73446;0.000;0.000;2024-03-07T10:37:58;99072.84;;;21.28;33.35
83512;BME280;73446;0.000;0.000;2024-03-07T10:40:53;99070.44;;;21.27;33.34
83512;BME280;73446;0.000;0.000;2024-03-07T10:43:39;99064.34;;;21.26;33.33
83512;BME280;73446;0.000;0.000;2024-03-07T10:46:26;99070.44;;;21.27;33.25
83512;BME280;73446;0.000;0.000;2024-03-07T10:49:15;99069.97;;;21.25;33.42
83512;BME280;73446;0.000;0.000;2024-03-07T10:52:06;99063.81;;;21.24;32.96
83512;BME280;73446;0.000;0.000;2024-03-07T10:55:12;99062.75;;;21.25;33.85
83512;BME280;73446;0.000;0.000;2024-03-07T10:58:07;99065.38;;;21.30;34.00
83512;BME280;73446;0.000;0.000;2024-03-07T11:00:58;99055.47;;;21.31;33.60
83512;BME280;73446;0.000;0.000;2024-03-07T11:03:44;99054.94;;;21.29;33.12
83512;BME280;73446;0.000;0.000;2024-03-07T11:06:31;99059.50;;;21.28;35.05
83512;BME280;73446;0.000;0.000;2024-03-07T11:09:18;99052.28;;;21.29;37.59
83512;BME280;73446;0.000;0.000;2024-03-07T11:12:07;99055.47;;;21.31;36.62
83512;BME280;73446;0.000;0.000;2024-03-07T11:14:56;99054.13;;;21.34;35.09
83512;BME280;73446;0.000;0.000;2024-03-07T11:17:46;99045.84;;;21.35;35.71
83512;BME280;73446;0.000;0.000;2024-03-07T11:20:35;99043.16;;;21.35;35.61
83512;BME280;73446;0.000;0.000;2024-03-07T11:23:29;99040.50;;;21.35;35.64
83512;BME280;73446;0.000;0.000;2024-03-07T11:26:14;99043.97;;;21.36;35.39
83512;BME280;73446;0.000;0.000;2024-03-07T11:28:58;99037.00;;;21.35;35.47
83512;BME280;73446;0.000;0.000;2024-03-07T11:31:42;99029.28;;;21.33;35.65
83512;BME280;73446;0.000;0.000;2024-03-07T11:34:29;99030.06;;;21.34;35.48
83512;BME280;73446;0.000;0.000;2024-03-07T11:37:18;99029.28;;;21.33;35.31
83512;BME280;73446;0.000;0.000;2024-03-07T11:40:06;99017.78;;;21.33;35.24
83512;BME280;73446;0.000;0.000;2024-03-07T11:42:53;99025.25;;;21.30;35.02
83512;BME280;73446;0.000;0.000;2024-03-07T11:45:37;99016.72;;;21.28;35.30
83512;BME280;73446;0.000;0.000;2024-03-07T11:48:28;99016.22;;;21.26;35.10
83512;BME280;73446;0.000;0.000;2024-03-07T11:51:18;99010.88;;;21.26;34.86
83512;BME280;73446;0.000;0.000;2024-03-07T11:54:01;99012.44;;;21.27;35.05
83512;BME280;73446;0.000;0.000;2024-03-07T11:56:46;99006.03;;;21.28;34.75
83512;BME280;73446;0.000;0.000;2024-03-07T11:59:31;98999.59;;;21.29;34.80
83512;BME280;73446;0.000;0.000;2024-03-07T12:02:21;98996.94;;;21.29;34.97
83512;BME280;73446;0.000;0.000;2024-03-07T12:05:06;98990.00;;;21.28;34.97
83512;BME280;73446;0.000;0.000;2024-03-07T12:07:50;98990.25;;;21.27;34.77
83512;BME280;73446;0.000;0.000;2024-03-07T12:10:36;98983.03;;;21.27;34.54
83512;BME280;73446;0.000;0.000;2024-03-07T12:13:20;98981.16;;;21.28;34.24
83512;BME280;73446;0.000;0.000;2024-03-07T12:16:04;98979.31;;;21.28;34.22
83512;BME280;73446;0.000;0.000;2024-03-07T12:18:51;98977.69;;;21.27;34.18
83512;BME280;73446;0.000;0.000;2024-03-07T12:21:39;98981.16;;;21.28;34.03
83512;BME280;73446;0.000;0.000;2024-03-07T12:24:24;98985.72;;;21.27;33.76
83512;BME280;73446;0.000;0.000;2024-03-07T12:27:09;98974.22;;;21.27;33.95
83512;BME280;73446;0.000;0.000;2024-03-07T12:29:55;98975.81;;;21.28;33.98
83512;BME280;73446;0.000;0.000;2024-03-07T12:32:47;98973.97;;;21.28;33.79
83512;BME280;73446;0.000;0.000;2024-03-07T12:35:31;98966.22;;;21.27;34.31
83512;BME280;73446;0.000;0.000;2024-03-07T12:38:15;98972.34;;;21.27;34.14
83512;BME280;73446;0.000;0.000;2024-03-07T12:41:05;98969.41;;;21.29;34.05
83512;BME280;73446;0.000;0.000;2024-03-07T12:43:51;98957.91;;;21.28;33.97
83512;BME280;73446;0.000;0.000;2024-03-07T12:46:35;98950.97;;;21.27;33.98
83512;BME280;73446;0.000;0.000;2024-03-07T12:49:19;98957.91;;;21.28;34.13
83512;BME280;73446;0.000;0.000;2024-03-07T12:52:04;98959.00;;;21.27;33.96
83512;BME280;73446;0.000;0.000;2024-03-07T12:54:49;98956.31;;;21.27;33.76
83512;BME280;73446;0.000;0.000;2024-03-07T12:57:33;98965.44;;;21.26;33.74
83512;BME280;73446;0.000;0.000;2024-03-07T13:00:18;98970.78;;;21.26;33.84
83512;BME280;73446;0.000;0.000;2024-03-07T13:03:05;98963.53;;;21.27;34.12
83512;BME280;73446;0.000;0.000;2024-03-07T13:05:49;98955.53;;;21.27;33.98
83512;BME280;73446;0.000;0.000;2024-03-07T13:08:33;98961.66;;;21.27;33.90
83512;BME280;73446;0.000;0.000;2024-03-07T13:11:17;98956.84;;;21.29;34.04
83512;BME280;73446;0.000;0.000;2024-03-07T13:14:02;98963.78;;;21.30;33.94
83512;BME280;73446;0.000;0.000;2024-03-07T13:16:46;98956.56;;;21.31;33.77
83512;BME280;73446;0.000;0.000;2024-03-07T13:19:30;98954.69;;;21.32;33.88
83512;BME280;73446;0.000;0.000;2024-03-07T13:22:14;98953.63;;;21.33;33.79
83512;BME280;73446;0.000;0.000;2024-03-07T13:24:58;98952.03;;;21.32;34.01
83512;BME280;73446;0.000;0.000;2024-03-07T13:28:00;98954.69;;;21.32;33.74
83512;BME280;73446;0.000;0.000;2024-03-07T13:30:45;98948.28;;;21.33;33.55
83512;BME280;73446;0.000;0.000;2024-03-07T13:33:32;98952.03;;;21.32;33.77
83512;BME280;73446;0.000;0.000;2024-03-07T13:36:17;98947.75;;;21.30;33.75
83512;BME280;73446;0.000;0.000;2024-03-07T13:39:10;98946.16;;;21.29;33.56
83512;BME280;73446;0.000;0.000;2024-03-07T13:41:55;98951.50;;;21.29;33.51
83512;BME280;73446;0.000;0.000;2024-03-07T13:44:39;98942.69;;;21.29;33.70
83512;BME280;73446;0.000;0.000;2024-03-07T13:47:24;98940.81;;;21.29;33.72
83512;BME280;73446;0.000;0.000;2024-03-07T13:50:07;98943.47;;;21.29;33.58
83512;BME280;73446;0.000;0.000;2024-03-07T13:52:56;98931.19;;;21.28;33.72
83512;BME280;73446;0.000;0.000;2024-03-07T14:02:18;98934.94;;;21.27;33.64
83512;BME280;73446;0.000;0.000;2024-03-07T14:08:42;98931.78;;;21.25;33.72
83512;BME280;73446;0.000;0.000;2024-03-07T14:24:36;98921.09;;;21.20;33.74
83512;BME280;73446;0.000;0.000;2024-03-07T14:27:37;98917.63;;;21.20;33.69
83512;BME280;73446;0.000;0.000;2024-03-07T14:30:36;98915.75;;;21.20;33.60
83512;BME280;73446;0.000;0.000;2024-03-07T14:33:33;98909.06;;;21.18;33.59
83512;BME280;73446;0.000;0.000;2024-03-07T14:36:19;98912.53;;;21.18;33.64
83512;BME280;73446;0.000;0.000;2024-03-07T14:39:05;98908.25;;;21.17;33.51
83512;BME280;73446;0.000;0.000;2024-03-07T14:41:56;98910.41;;;21.15;33.47
83512;BME280;73446;0.000;0.000;2024-03-07T14:44:43;98901.59;;;21.15;33.32
83512;BME280;73446;0.000;0.000;2024-03-07T14:47:29;98901.88;;;21.13;33.29
83512;BME280;73446;0.000;0.000;2024-03-07T14:50:14;98899.19;;;21.13;33.43
83512;BME280;73446;0.000;0.000;2024-03-07T14:53:00;98906.19;;;21.09;33.45
83512;BME280;73446;0.000;0.000;2024-03-07T14:55:44;98889.59;;;21.12;32.92
83512;BME280;73446;0.000;0.000;2024-03-07T14:58:28;98887.72;;;21.13;33.90
83512;BME280;73446;0.000;0.000;2024-03-07T15:01:13;98892.25;;;21.12;33.62
83512;BME280;73446;0.000;0.000;2024-03-07T15:03:58;98880.28;;;21.10;33.17
83512;BME280;73446;0.000;0.000;2024-03-07T15:06:42;98874.13;;;21.09;33.74
83512;BME280;73446;0.000;0.000;2024-03-07T15:09:26;98872.53;;;21.08;33.52